X

Important NEWS



New Hub Active

Miami is our new hub! Old members can request transfer via hr@dlxairways.net

Thank you very much and have nice flight.


Deluxe Airways.

X

Tours



Hello again, we created one nice test tour for all pilots to attend. also this is ment to be testing of our tour system

Available Tours

If you find some issues please inform us.

Thank you very much and have nice flight.


Deluxe Airways.

 METAR AND TAF INFORMATION
ArrayMETAR FOR EGCC
101538098 4 EGCC 121820Z AUTO 30012KT 9999 OVC034 08/04 Q0998 EGCC 2019-11-12T18:20:00Z 53.35 -2.27 8.0 4.0 300 12 6.21 29.468504 TRUE VFR METAR 78.0 EGCC 121750Z AUTO 31011KT 9999 OVC034 08/04 Q0997 EGCC 2019-11-12T17:50:00Z 53.35 -2.27 8.0 4.0 310 11 6.21 29.438976 TRUE VFR METAR 78.0 EGCC 121720Z AUTO 30010KT 9999 OVC036 08/04 Q0997 EGCC 2019-11-12T17:20:00Z 53.35 -2.27 8.0 4.0 300 10 6.21 29.438976 TRUE VFR METAR 78.0 EGCC 121650Z AUTO 32009KT 270V350 9999 OVC035 08/04 Q0997 NOSIG EGCC 2019-11-12T16:50:00Z 53.35 -2.27 8.0 4.0 320 9 6.21 29.438976 TRUE TRUE VFR METAR 78.0

 AIRPORT MAP

 RUNWAY INFORMATION
Runway 05L Runway length 10000 ft Runway width 150 ft
Runway elevation 212 ft Runway displaced threshold 1401 ft Runway heading 51
Runway 23R Runway length 10000 ft Runway width 150 ft
Runway elevation 249 ft Runway displaced threshold 600 ft Runway heading 231
Runway 05R Runway length 9997 ft Runway width 150 ft
Runway elevation 186 ft Runway displaced threshold 604 ft Runway heading 51
Runway 23L Runway length 9997 ft Runway width 150 ft
Runway elevation 227 ft Runway displaced threshold 604 ft Runway heading 231

 AIRPORT FREQUENCIES
Type APP Name APP Frequency 135 MHZ
Type ATIS Name ATIS Frequency 128.175 MHZ
Type CLD Name CLNC DEL Frequency 121.7 MHZ
Type GND Name GND Frequency 121.85 MHZ
Type TWR Name TWR Frequency 118.625 MHZ

 AIRPORT NEAR NAVIGATION AIDS
Type NDB Name Manchester Frequency 428 KHZ
Type VOR-DME Name Manchester Frequency 113550 KHZ



Powered by Virtual Airlines Manager [v2.6.2]

Template code change by DeluxeAir